sensor_id;sensor_type;location;lat;lon;timestamp;pressure;altitude;pressure_sealevel;temperature;humidity
78144;BME280;67394;52.522;13.622;2023-02-13T00:02:22;103097.69;;;6.86;93.76
78144;BME280;67394;52.522;13.622;2023-02-13T00:04:48;103100.81;;;6.96;93.71
78144;BME280;67394;52.522;13.622;2023-02-13T00:07:15;103102.91;;;6.89;93.74
78144;BME280;67394;52.522;13.622;2023-02-13T00:09:41;103103.78;;;6.89;93.80
78144;BME280;67394;52.522;13.622;2023-02-13T00:12:08;103098.56;;;6.86;93.76
78144;BME280;67394;52.522;13.622;2023-02-13T00:14:37;103101.34;;;6.91;93.65
78144;BME280;67394;52.522;13.622;2023-02-13T00:17:04;103102.69;;;6.84;93.67
78144;BME280;67394;52.522;13.622;2023-02-13T00:19:31;103104.34;;;6.84;93.44
78144;BME280;67394;52.522;13.622;2023-02-13T00:21:57;103100.03;;;6.83;93.66
78144;BME280;67394;52.522;13.622;2023-02-13T00:24:23;103100.84;;;6.82;93.25
78144;BME280;67394;52.522;13.622;2023-02-13T00:26:50;103102.41;;;6.80;93.00
78144;BME280;67394;52.522;13.622;2023-02-13T00:29:16;103099.88;;;6.80;93.11
78144;BME280;67394;52.522;13.622;2023-02-13T00:31:43;103105.63;;;6.76;93.04
78144;BME280;67394;52.522;13.622;2023-02-13T00:34:09;103103.31;;;6.80;92.84
78144;BME280;67394;52.522;13.622;2023-02-13T00:36:35;103097.22;;;6.78;92.64
78144;BME280;67394;52.522;13.622;2023-02-13T00:39:02;103092.88;;;6.76;92.22
78144;BME280;67394;52.522;13.622;2023-02-13T00:41:31;103096.81;;;6.71;92.25
78144;BME280;67394;52.522;13.622;2023-02-13T00:43:58;103097.19;;;6.77;91.48
78144;BME280;67394;52.522;13.622;2023-02-13T00:46:24;103106.91;;;6.84;90.65
78144;BME280;67394;52.522;13.622;2023-02-13T00:48:50;103105.22;;;6.84;90.26
78144;BME280;67394;52.522;13.622;2023-02-13T00:51:16;103101.50;;;6.78;90.66
78144;BME280;67394;52.522;13.622;2023-02-13T00:53:43;103102.41;;;6.80;90.41
78144;BME280;67394;52.522;13.622;2023-02-13T00:56:09;103100.53;;;6.76;90.68
78144;BME280;67394;52.522;13.622;2023-02-13T00:58:36;103104.03;;;6.78;90.65
78144;BME280;67394;52.522;13.622;2023-02-13T01:01:02;103096.38;;;6.78;90.04
78144;BME280;67394;52.522;13.622;2023-02-13T01:03:28;103099.63;;;6.75;89.91
78144;BME280;67394;52.522;13.622;2023-02-13T01:05:56;103112.47;;;6.77;89.59
78144;BME280;67394;52.522;13.622;2023-02-13T01:08:23;103108.16;;;6.76;89.55
78144;BME280;67394;52.522;13.622;2023-02-13T01:10:49;103105.94;;;6.82;88.91
78144;BME280;67394;52.522;13.622;2023-02-13T01:13:16;103103.50;;;6.69;89.12
78144;BME280;67394;52.522;13.622;2023-02-13T01:15:43;103114.06;;;6.75;88.97
78144;BME280;67394;52.522;13.622;2023-02-13T01:18:12;103109.41;;;6.68;88.82
78144;BME280;67394;52.522;13.622;2023-02-13T01:20:40;103110.44;;;6.71;88.54
78144;BME280;67394;52.522;13.622;2023-02-13T01:23:07;103108.28;;;6.63;88.99
78144;BME280;67394;52.522;13.622;2023-02-13T01:25:33;103102.13;;;6.59;88.53
78144;BME280;67394;52.522;13.622;2023-02-13T01:27:59;103105.56;;;6.59;87.74
78144;BME280;67394;52.522;13.622;2023-02-13T01:30:26;103102.84;;;6.56;88.14
78144;BME280;67394;52.522;13.622;2023-02-13T01:32:52;103105.47;;;6.58;86.72
78144;BME280;67394;52.522;13.622;2023-02-13T01:35:18;103100.72;;;6.64;86.84
78144;BME280;67394;52.522;13.622;2023-02-13T01:37:45;103103.09;;;6.61;86.86
78144;BME280;67394;52.522;13.622;2023-02-13T01:40:12;103100.31;;;6.56;87.01
78144;BME280;67394;52.522;13.622;2023-02-13T01:42:39;103097.91;;;6.59;86.45
78144;BME280;67394;52.522;13.622;2023-02-13T01:45:28;103102.22;;;6.60;86.02
78144;BME280;67394;52.522;13.622;2023-02-13T01:48:03;103092.19;;;6.64;85.73
78144;BME280;67394;52.522;13.622;2023-02-13T01:50:39;103094.94;;;6.52;85.92
78144;BME280;67394;52.522;13.622;2023-02-13T01:53:15;103091.53;;;6.51;86.36
78144;BME280;67394;52.522;13.622;2023-02-13T01:55:48;103095.13;;;6.55;85.55
78144;BME280;67394;52.522;13.622;2023-02-13T01:58:18;103100.56;;;6.46;85.77
78144;BME280;67394;52.522;13.622;2023-02-13T02:00:46;103098.75;;;6.44;85.74
78144;BME280;67394;52.522;13.622;2023-02-13T02:03:17;103102.97;;;6.43;86.14
78144;BME280;67394;52.522;13.622;2023-02-13T02:05:44;103100.84;;;6.51;85.82
78144;BME280;67394;52.522;13.622;2023-02-13T02:08:13;103096.28;;;6.45;85.73
78144;BME280;67394;52.522;13.622;2023-02-13T02:10:40;103092.59;;;6.40;86.15
78144;BME280;67394;52.522;13.622;2023-02-13T02:13:12;103096.91;;;6.41;85.85
78144;BME280;67394;52.522;13.622;2023-02-13T02:15:40;103097.06;;;6.44;86.12
78144;BME280;67394;52.522;13.622;2023-02-13T02:18:23;103097.59;;;6.39;86.96
78144;BME280;67394;52.522;13.622;2023-02-13T02:29:00;103107.44;;;6.33;86.61
78144;BME280;67394;52.522;13.622;2023-02-13T02:45:49;103116.25;;;6.23;87.52
78144;BME280;67394;52.522;13.622;2023-02-13T02:48:28;103116.75;;;6.32;86.64
78144;BME280;67394;52.522;13.622;2023-02-13T02:51:01;103109.53;;;6.25;86.68
78144;BME280;67394;52.522;13.622;2023-02-13T02:53:59;103111.75;;;6.19;86.79
78144;BME280;67394;52.522;13.622;2023-02-13T02:56:39;103114.63;;;6.25;86.72
78144;BME280;67394;52.522;13.622;2023-02-13T02:59:11;103113.31;;;6.17;86.84
78144;BME280;67394;52.522;13.622;2023-02-13T03:01:40;103105.69;;;6.17;86.81
78144;BME280;67394;52.522;13.622;2023-02-13T03:06:50;103106.75;;;6.20;86.60
78144;BME280;67394;52.522;13.622;2023-02-13T03:09:22;103100.78;;;6.20;86.61
78144;BME280;67394;52.522;13.622;2023-02-13T03:11:53;103100.88;;;6.21;86.39
78144;BME280;67394;52.522;13.622;2023-02-13T03:14:21;103102.53;;;6.21;86.89
78144;BME280;67394;52.522;13.622;2023-02-13T03:16:50;103105.41;;;6.27;86.71
78144;BME280;67394;52.522;13.622;2023-02-13T03:19:30;103107.22;;;6.13;87.26
78144;BME280;67394;52.522;13.622;2023-02-13T03:22:05;103095.50;;;6.17;87.20
78144;BME280;67394;52.522;13.622;2023-02-13T03:27:27;103103.59;;;6.10;87.01
78144;BME280;67394;52.522;13.622;2023-02-13T03:30:04;103108.34;;;6.04;87.34
78144;BME280;67394;52.522;13.622;2023-02-13T03:38:26;103105.16;;;6.08;86.44
78144;BME280;67394;52.522;13.622;2023-02-13T03:41:26;103104.28;;;6.07;85.61
78144;BME280;67394;52.522;13.622;2023-02-13T03:46:39;103108.69;;;6.10;85.37
78144;BME280;67394;52.522;13.622;2023-02-13T03:49:12;103098.88;;;6.01;85.34
78144;BME280;67394;52.522;13.622;2023-02-13T03:54:21;103102.38;;;6.03;84.52
78144;BME280;67394;52.522;13.622;2023-02-13T03:56:51;103107.47;;;6.03;84.44
78144;BME280;67394;52.522;13.622;2023-02-13T03:59:20;103101.41;;;6.01;84.80
78144;BME280;67394;52.522;13.622;2023-02-13T04:02:18;103090.94;;;5.97;85.28
78144;BME280;67394;52.522;13.622;2023-02-13T04:04:51;103099.22;;;5.93;84.78
78144;BME280;67394;52.522;13.622;2023-02-13T04:07:20;103099.00;;;6.04;84.17
78144;BME280;67394;52.522;13.622;2023-02-13T04:09:47;103094.47;;;5.99;84.37
78144;BME280;67394;52.522;13.622;2023-02-13T04:12:19;103096.91;;;5.97;83.95
78144;BME280;67394;52.522;13.622;2023-02-13T04:14:56;103099.38;;;5.96;84.07
78144;BME280;67394;52.522;13.622;2023-02-13T04:17:31;103096.72;;;5.94;83.85
78144;BME280;67394;52.522;13.622;2023-02-13T04:19:59;103095.06;;;5.95;83.63
78144;BME280;67394;52.522;13.622;2023-02-13T04:22:25;103089.19;;;5.96;83.84
78144;BME280;67394;52.522;13.622;2023-02-13T04:24:51;103096.81;;;5.96;83.36
78144;BME280;67394;52.522;13.622;2023-02-13T04:27:18;103095.84;;;5.94;82.97
78144;BME280;67394;52.522;13.622;2023-02-13T04:29:44;103094.28;;;5.96;83.30
78144;BME280;67394;52.522;13.622;2023-02-13T04:32:11;103094.72;;;5.88;83.71
78144;BME280;67394;52.522;13.622;2023-02-13T04:34:37;103093.25;;;5.92;82.90
78144;BME280;67394;52.522;13.622;2023-02-13T04:37:04;103091.81;;;5.97;82.01
78144;BME280;67394;52.522;13.622;2023-02-13T04:39:30;103091.03;;;5.98;82.08
78144;BME280;67394;52.522;13.622;2023-02-13T04:41:56;103091.03;;;5.98;81.66
78144;BME280;67394;52.522;13.622;2023-02-13T04:44:22;103075.44;;;5.92;82.70
78144;BME280;67394;52.522;13.622;2023-02-13T04:46:49;103079.97;;;5.98;81.32
78144;BME280;67394;52.522;13.622;2023-02-13T04:49:15;103080.41;;;6.05;81.26
78144;BME280;67394;52.522;13.622;2023-02-13T04:51:41;103071.22;;;5.93;81.94
78144;BME280;67394;52.522;13.622;2023-02-13T04:54:09;103066.91;;;5.92;82.06
78144;BME280;67394;52.522;13.622;2023-02-13T04:56:36;103074.22;;;5.87;82.70
78144;BME280;67394;52.522;13.622;2023-02-13T04:59:02;103071.59;;;5.85;82.75
78144;BME280;67394;52.522;13.622;2023-02-13T05:01:29;103069.84;;;5.84;82.35
78144;BME280;67394;52.522;13.622;2023-02-13T05:03:55;103076.22;;;5.91;82.21
78144;BME280;67394;52.522;13.622;2023-02-13T05:06:21;103072.72;;;6.04;81.39
78144;BME280;67394;52.522;13.622;2023-02-13T05:08:48;103074.78;;;5.96;81.83
78144;BME280;67394;52.522;13.622;2023-02-13T05:11:14;103070.59;;;5.97;81.94
78144;BME280;67394;52.522;13.622;2023-02-13T05:13:40;103077.25;;;5.95;81.71
78144;BME280;67394;52.522;13.622;2023-02-13T05:16:07;103085.16;;;5.99;81.68
78144;BME280;67394;52.522;13.622;2023-02-13T05:18:33;103094.28;;;5.96;81.76
78144;BME280;67394;52.522;13.622;2023-02-13T05:20:59;103089.91;;;5.93;82.67
78144;BME280;67394;52.522;13.622;2023-02-13T05:23:26;103098.41;;;5.94;82.74
78144;BME280;67394;52.522;13.622;2023-02-13T05:25:52;103097.47;;;5.92;82.75
78144;BME280;67394;52.522;13.622;2023-02-13T05:28:18;103094.91;;;5.92;83.39
78144;BME280;67394;52.522;13.622;2023-02-13T05:30:45;103084.72;;;5.92;83.54
78144;BME280;67394;52.522;13.622;2023-02-13T05:33:11;103091.22;;;6.01;81.88
78144;BME280;67394;52.522;13.622;2023-02-13T05:35:37;103095.06;;;5.95;82.53
78144;BME280;67394;52.522;13.622;2023-02-13T05:38:04;103092.69;;;5.98;81.66
78144;BME280;67394;52.522;13.622;2023-02-13T05:40:30;103092.00;;;6.00;81.65
78144;BME280;67394;52.522;13.622;2023-02-13T05:42:56;103085.75;;;5.95;82.98
78144;BME280;67394;52.522;13.622;2023-02-13T05:45:22;103084.81;;;5.93;82.77
78144;BME280;67394;52.522;13.622;2023-02-13T05:47:49;103096.91;;;5.97;82.47
78144;BME280;67394;52.522;13.622;2023-02-13T05:50:15;103086.31;;;5.90;83.08
78144;BME280;67394;52.522;13.622;2023-02-13T05:52:42;103096.06;;;5.83;83.55
78144;BME280;67394;52.522;13.622;2023-02-13T05:55:08;103097.78;;;5.98;82.49
78144;BME280;67394;52.522;13.622;2023-02-13T05:57:34;103100.97;;;6.08;81.82
78144;BME280;67394;52.522;13.622;2023-02-13T06:00:02;103108.84;;;5.98;82.87
78144;BME280;67394;52.522;13.622;2023-02-13T06:02:28;103110.28;;;5.93;83.00
78144;BME280;67394;52.522;13.622;2023-02-13T06:04:55;103102.69;;;5.95;82.39
78144;BME280;67394;52.522;13.622;2023-02-13T06:07:21;103109.13;;;6.03;81.92
78144;BME280;67394;52.522;13.622;2023-02-13T06:09:48;103116.41;;;5.97;82.14
78144;BME280;67394;52.522;13.622;2023-02-13T06:12:14;103117.91;;;5.93;82.32
78144;BME280;67394;52.522;13.622;2023-02-13T06:14:40;103119.38;;;5.90;82.35
78144;BME280;67394;52.522;13.622;2023-02-13T06:17:07;103125.78;;;5.98;81.71
78144;BME280;67394;52.522;13.622;2023-02-13T06:19:33;103122.56;;;6.00;82.10
78144;BME280;67394;52.522;13.622;2023-02-13T06:21:59;103123.16;;;5.96;81.28
78144;BME280;67394;52.522;13.622;2023-02-13T06:24:26;103127.28;;;5.94;81.81
78144;BME280;67394;52.522;13.622;2023-02-13T06:26:52;103119.16;;;5.86;82.71
78144;BME280;67394;52.522;13.622;2023-02-13T06:29:18;103124.38;;;5.88;82.05
78144;BME280;67394;52.522;13.622;2023-02-13T06:31:44;103126.25;;;5.91;81.72
78144;BME280;67394;52.522;13.622;2023-02-13T06:34:11;103114.47;;;5.93;81.61
78144;BME280;67394;52.522;13.622;2023-02-13T06:36:37;103119.72;;;5.96;81.12
78144;BME280;67394;52.522;13.622;2023-02-13T06:39:04;103118.84;;;5.95;81.45
78144;BME280;67394;52.522;13.622;2023-02-13T06:41:30;103120.47;;;5.93;81.14
78144;BME280;67394;52.522;13.622;2023-02-13T06:43:56;103127.38;;;5.96;81.42
78144;BME280;67394;52.522;13.622;2023-02-13T06:46:22;103126.59;;;5.97;81.70
78144;BME280;67394;52.522;13.622;2023-02-13T06:48:49;103133.34;;;5.96;81.29
78144;BME280;67394;52.522;13.622;2023-02-13T06:51:15;103138.53;;;5.98;81.14
78144;BME280;67394;52.522;13.622;2023-02-13T06:53:41;103139.31;;;5.97;80.77
78144;BME280;67394;52.522;13.622;2023-02-13T06:56:08;103141.66;;;5.94;81.70
78144;BME280;67394;52.522;13.622;2023-02-13T06:58:35;103139.13;;;5.94;81.87
78144;BME280;67394;52.522;13.622;2023-02-13T07:01:01;103144.41;;;5.97;81.60
78144;BME280;67394;52.522;13.622;2023-02-13T07:03:27;103140.88;;;5.95;81.92
78144;BME280;67394;52.522;13.622;2023-02-13T07:05:54;103148.34;;;5.92;82.43
78144;BME280;67394;52.522;13.622;2023-02-13T07:08:20;103145.81;;;5.92;82.39
78144;BME280;67394;52.522;13.622;2023-02-13T07:10:46;103145.97;;;5.95;82.38
78144;BME280;67394;52.522;13.622;2023-02-13T07:13:13;103151.00;;;5.93;82.79
78144;BME280;67394;52.522;13.622;2023-02-13T07:15:39;103152.72;;;5.94;82.45
78144;BME280;67394;52.522;13.622;2023-02-13T07:18:05;103152.22;;;6.00;81.21
78144;BME280;67394;52.522;13.622;2023-02-13T07:20:32;103152.31;;;6.01;81.03
78144;BME280;67394;52.522;13.622;2023-02-13T07:22:59;103156.53;;;6.01;81.45
78144;BME280;67394;52.522;13.622;2023-02-13T07:25:27;103153.53;;;6.08;81.19
78144;BME280;67394;52.522;13.622;2023-02-13T07:27:54;103162.59;;;6.03;81.22
78144;BME280;67394;52.522;13.622;2023-02-13T07:30:20;103155.56;;;5.99;82.38
78144;BME280;67394;52.522;13.622;2023-02-13T07:32:47;103160.84;;;6.02;81.64
78144;BME280;67394;52.522;13.622;2023-02-13T07:35:13;103159.97;;;6.01;82.36
78144;BME280;67394;52.522;13.622;2023-02-13T07:37:39;103166.91;;;6.04;81.82
78144;BME280;67394;52.522;13.622;2023-02-13T07:40:06;103167.59;;;6.01;81.57
78144;BME280;67394;52.522;13.622;2023-02-13T07:42:33;103161.63;;;6.01;81.84
78144;BME280;67394;52.522;13.622;2023-02-13T07:44:59;103159.59;;;6.10;81.57
78144;BME280;67394;52.522;13.622;2023-02-13T07:47:26;103157.66;;;6.06;81.93
78144;BME280;67394;52.522;13.622;2023-02-13T07:49:52;103171.38;;;6.08;81.68
78144;BME280;67394;52.522;13.622;2023-02-13T07:52:18;103167.16;;;6.08;82.34
78144;BME280;67394;52.522;13.622;2023-02-13T07:54:45;103159.59;;;6.10;82.29
78144;BME280;67394;52.522;13.622;2023-02-13T07:57:15;103168.13;;;6.10;81.53
78144;BME280;67394;52.522;13.622;2023-02-13T07:59:42;103166.66;;;6.14;81.98
78144;BME280;67394;52.522;13.622;2023-02-13T08:02:13;103173.47;;;6.15;81.00
78144;BME280;67394;52.522;13.622;2023-02-13T08:04:40;103174.19;;;6.12;81.32
78144;BME280;67394;52.522;13.622;2023-02-13T08:07:07;103175.84;;;6.12;82.26
78144;BME280;67394;52.522;13.622;2023-02-13T08:09:33;103170.75;;;6.12;82.17
78144;BME280;67394;52.522;13.622;2023-02-13T08:11:59;103173.47;;;6.15;81.74
78144;BME280;67394;52.522;13.622;2023-02-13T08:14:26;103175.22;;;6.16;82.72
78144;BME280;67394;52.522;13.622;2023-02-13T08:16:53;103178.50;;;6.13;82.77
78144;BME280;67394;52.522;13.622;2023-02-13T08:19:20;103175.94;;;6.28;81.30
78144;BME280;67394;52.522;13.622;2023-02-13T08:21:46;103166.38;;;6.24;81.59
78144;BME280;67394;52.522;13.622;2023-02-13T08:24:12;103173.81;;;6.36;80.87
78144;BME280;67394;52.522;13.622;2023-02-13T08:26:39;103171.13;;;6.33;81.03
78144;BME280;67394;52.522;13.622;2023-02-13T08:29:06;103170.25;;;6.32;80.99
78144;BME280;67394;52.522;13.622;2023-02-13T08:31:32;103167.50;;;6.29;81.98
78144;BME280;67394;52.522;13.622;2023-02-13T08:33:59;103170.75;;;6.27;82.34
78144;BME280;67394;52.522;13.622;2023-02-13T08:36:25;103165.75;;;6.28;82.19
78144;BME280;67394;52.522;13.622;2023-02-13T08:38:52;103171.03;;;6.31;82.25
78144;BME280;67394;52.522;13.622;2023-02-13T08:41:18;103160.31;;;6.37;82.02
78144;BME280;67394;52.522;13.622;2023-02-13T08:43:44;103173.03;;;6.37;81.92
78144;BME280;67394;52.522;13.622;2023-02-13T08:46:11;103169.19;;;6.43;81.01
78144;BME280;67394;52.522;13.622;2023-02-13T08:48:37;103164.19;;;6.45;81.18
78144;BME280;67394;52.522;13.622;2023-02-13T08:51:08;103162.06;;;6.52;80.75
78144;BME280;67394;52.522;13.622;2023-02-13T08:53:35;103165.22;;;6.48;81.38
78144;BME280;67394;52.522;13.622;2023-02-13T08:56:02;103163.66;;;6.50;81.06
78144;BME280;67394;52.522;13.622;2023-02-13T08:58:29;103156.38;;;6.56;81.23
78144;BME280;67394;52.522;13.622;2023-02-13T09:00:55;103160.63;;;6.57;81.12
78144;BME280;67394;52.522;13.622;2023-02-13T09:03:22;103169.25;;;6.59;81.83
78144;BME280;67394;52.522;13.622;2023-02-13T09:05:48;103167.50;;;6.58;81.12
78144;BME280;67394;52.522;13.622;2023-02-13T09:08:15;103181.22;;;6.60;81.15
78144;BME280;67394;52.522;13.622;2023-02-13T09:10:44;103179.53;;;6.61;81.01
78144;BME280;67394;52.522;13.622;2023-02-13T09:13:10;103172.78;;;6.61;81.47
78144;BME280;67394;52.522;13.622;2023-02-13T09:15:38;103172.78;;;6.61;81.92
78144;BME280;67394;52.522;13.622;2023-02-13T09:18:05;103173.84;;;6.65;81.65
78144;BME280;67394;52.522;13.622;2023-02-13T09:20:32;103180.31;;;6.75;80.78
78144;BME280;67394;52.522;13.622;2023-02-13T09:23:00;103181.28;;;6.77;81.27
78144;BME280;67394;52.522;13.622;2023-02-13T09:25:27;103177.88;;;6.76;81.32
78144;BME280;67394;52.522;13.622;2023-02-13T09:27:53;103180.50;;;6.78;81.57
78144;BME280;67394;52.522;13.622;2023-02-13T09:30:20;103182.88;;;6.75;81.47
78144;BME280;67394;52.522;13.622;2023-02-13T09:32:46;103182.22;;;6.79;81.81
78144;BME280;67394;52.522;13.622;2023-02-13T09:35:12;103182.31;;;6.80;81.65
78144;BME280;67394;52.522;13.622;2023-02-13T09:37:38;103183.09;;;6.79;81.64
78144;BME280;67394;52.522;13.622;2023-02-13T09:40:28;103189.72;;;6.76;81.39
78144;BME280;67394;52.522;13.622;2023-02-13T09:43:01;103188.28;;;6.81;81.57
78144;BME280;67394;52.522;13.622;2023-02-13T09:45:29;103187.31;;;6.79;81.50
78144;BME280;67394;52.522;13.622;2023-02-13T09:47:55;103185.13;;;6.85;81.34
78144;BME280;67394;52.522;13.622;2023-02-13T09:50:24;103180.81;;;6.84;81.65
78144;BME280;67394;52.522;13.622;2023-02-13T09:52:54;103184.25;;;6.84;83.10
78144;BME280;67394;52.522;13.622;2023-02-13T09:55:41;103178.28;;;6.84;83.66
78144;BME280;67394;52.522;13.622;2023-02-13T10:00:50;103176.44;;;6.81;84.11
78144;BME280;67394;52.522;13.622;2023-02-13T10:03:27;103175.72;;;6.84;84.25
78144;BME280;67394;52.522;13.622;2023-02-13T10:14:13;103184.06;;;6.81;85.81
78144;BME280;67394;52.522;13.622;2023-02-13T10:16:21;103184.00;;;6.80;85.47
78144;BME280;67394;52.522;13.622;2023-02-13T10:18:53;103181.00;;;6.87;86.07
78144;BME280;67394;52.522;13.622;2023-02-13T10:21:25;103180.66;;;6.81;86.06
78144;BME280;67394;52.522;13.622;2023-02-13T10:24:00;103179.38;;;6.89;86.50
78144;BME280;67394;52.522;13.622;2023-02-13T10:26:33;103178.75;;;6.77;87.19
78144;BME280;67394;52.522;13.622;2023-02-13T10:29:09;103176.97;;;6.76;87.34
78144;BME280;67394;52.522;13.622;2023-02-13T10:31:39;103178.47;;;6.87;87.37
78144;BME280;67394;52.522;13.622;2023-02-13T10:34:13;103174.56;;;6.79;87.13
78144;BME280;67394;52.522;13.622;2023-02-13T10:36:44;103177.88;;;6.76;87.67
78144;BME280;67394;52.522;13.622;2023-02-13T10:41:53;103177.66;;;6.88;87.69
78144;BME280;67394;52.522;13.622;2023-02-13T10:44:50;103171.31;;;6.96;87.77
78144;BME280;67394;52.522;13.622;2023-02-13T10:50:39;103172.84;;;6.78;88.61
78144;BME280;67394;52.522;13.622;2023-02-13T11:03:28;103155.50;;;6.87;88.04
78144;BME280;67394;52.522;13.622;2023-02-13T11:05:56;103154.72;;;6.88;88.42
78144;BME280;67394;52.522;13.622;2023-02-13T11:08:40;103155.13;;;6.95;88.25
78144;BME280;67394;52.522;13.622;2023-02-13T11:11:30;103147.50;;;6.95;88.11
78144;BME280;67394;52.522;13.622;2023-02-13T11:14:23;103145.03;;;6.97;87.91
78144;BME280;67394;52.522;13.622;2023-02-13T11:17:00;103147.59;;;7.13;87.64
78144;BME280;67394;52.522;13.622;2023-02-13T11:22:13;103143.53;;;7.17;86.05
78144;BME280;67394;52.522;13.622;2023-02-13T11:24:50;103139.53;;;7.22;86.02
78144;BME280;67394;52.522;13.622;2023-02-13T11:27:23;103140.44;;;7.22;84.65
78144;BME280;67394;52.522;13.622;2023-02-13T11:29:55;103138.84;;;7.24;84.28
78144;BME280;67394;52.522;13.622;2023-02-13T11:32:24;103135.91;;;7.17;83.86
78144;BME280;67394;52.522;13.622;2023-02-13T11:34:51;103140.81;;;7.14;83.06
78144;BME280;67394;52.522;13.622;2023-02-13T11:37:21;103144.16;;;7.13;84.28
78144;BME280;67394;52.522;13.622;2023-02-13T11:39:50;103141.69;;;7.14;82.74
78144;BME280;67394;52.522;13.622;2023-02-13T11:42:24;103137.69;;;7.03;83.38
78144;BME280;67394;52.522;13.622;2023-02-13T11:45:03;103138.97;;;7.11;84.32
78144;BME280;67394;52.522;13.622;2023-02-13T11:47:38;103128.38;;;7.04;82.50
78144;BME280;67394;52.522;13.622;2023-02-13T11:50:19;103126.00;;;7.07;82.55
78144;BME280;67394;52.522;13.622;2023-02-13T11:53:01;103124.81;;;7.16;82.51
78144;BME280;67394;52.522;13.622;2023-02-13T11:55:39;103127.28;;;7.15;81.61
78144;BME280;67394;52.522;13.622;2023-02-13T12:00:42;103116.53;;;7.20;81.59
78144;BME280;67394;52.522;13.622;2023-02-13T12:06:11;103122.91;;;7.28;81.75
78144;BME280;67394;52.522;13.622;2023-02-13T12:08:39;103121.69;;;7.22;81.23
78144;BME280;67394;52.522;13.622;2023-02-13T12:13:50;103112.22;;;7.19;80.53
78144;BME280;67394;52.522;13.622;2023-02-13T12:16:34;103120.91;;;7.23;79.89
78144;BME280;67394;52.522;13.622;2023-02-13T12:19:06;103121.47;;;7.17;79.15
78144;BME280;67394;52.522;13.622;2023-02-13T12:27:11;103125.28;;;7.25;78.53
78144;BME280;67394;52.522;13.622;2023-02-13T12:29:58;103123.22;;;7.34;77.66
78144;BME280;67394;52.522;13.622;2023-02-13T12:38:50;103118.59;;;7.27;78.41
78144;BME280;67394;52.522;13.622;2023-02-13T12:52:33;103116.38;;;7.33;76.74
78144;BME280;67394;52.522;13.622;2023-02-13T12:55:21;103108.97;;;7.38;76.72
78144;BME280;67394;52.522;13.622;2023-02-13T13:03:39;103105.78;;;7.26;77.34
78144;BME280;67394;52.522;13.622;2023-02-13T13:16:51;103114.03;;;7.22;76.37
78144;BME280;67394;52.522;13.622;2023-02-13T13:19:44;103116.47;;;7.19;76.46
78144;BME280;67394;52.522;13.622;2023-02-13T13:22:18;103113.16;;;7.21;76.67
78144;BME280;67394;52.522;13.622;2023-02-13T13:24:59;103121.06;;;7.26;76.63
78144;BME280;67394;52.522;13.622;2023-02-13T13:27:32;103120.75;;;7.20;77.11
78144;BME280;67394;52.522;13.622;2023-02-13T13:30:26;103117.25;;;7.18;76.57
78144;BME280;67394;52.522;13.622;2023-02-13T13:32:59;103117.00;;;7.13;77.07
78144;BME280;67394;52.522;13.622;2023-02-13T13:35:28;103118.75;;;7.14;77.05
78144;BME280;67394;52.522;13.622;2023-02-13T13:38:01;103112.53;;;7.09;77.05
78144;BME280;67394;52.522;13.622;2023-02-13T13:40:38;103127.28;;;7.15;77.22
78144;BME280;67394;52.522;13.622;2023-02-13T13:49:05;103107.28;;;7.22;76.60
78144;BME280;67394;52.522;13.622;2023-02-13T13:51:35;103113.72;;;7.16;77.66
78144;BME280;67394;52.522;13.622;2023-02-13T14:02:47;103103.63;;;7.17;76.35
78144;BME280;67394;52.522;13.622;2023-02-13T14:05:30;103093.34;;;7.16;76.32
78144;BME280;67394;52.522;13.622;2023-02-13T14:08:00;103100.19;;;7.17;77.36
78144;BME280;67394;52.522;13.622;2023-02-13T14:18:16;103081.19;;;7.12;76.39
78144;BME280;67394;52.522;13.622;2023-02-13T14:26:29;103066.47;;;7.06;77.09
78144;BME280;67394;52.522;13.622;2023-02-13T14:29:01;103062.56;;;7.13;76.68
78144;BME280;67394;52.522;13.622;2023-02-13T14:31:35;103068.53;;;7.13;75.38
78144;BME280;67394;52.522;13.622;2023-02-13T14:34:23;103064.72;;;7.05;75.86
78144;BME280;67394;52.522;13.622;2023-02-13T14:39:37;103053.38;;;7.00;75.82
78144;BME280;67394;52.522;13.622;2023-02-13T14:42:21;103061.91;;;7.01;75.29
78144;BME280;67394;52.522;13.622;2023-02-13T14:44:55;103063.53;;;6.98;75.32
78144;BME280;67394;52.522;13.622;2023-02-13T14:47:36;103063.44;;;6.97;76.05
78144;BME280;67394;52.522;13.622;2023-02-13T14:50:05;103057.19;;;6.92;75.73
78144;BME280;67394;52.522;13.622;2023-02-13T14:52:36;103053.47;;;6.85;75.60
78144;BME280;67394;52.522;13.622;2023-02-13T14:55:06;103052.09;;;6.92;75.09
78144;BME280;67394;52.522;13.622;2023-02-13T14:57:44;103059.63;;;7.05;73.54
78144;BME280;67394;52.522;13.622;2023-02-13T15:00:27;103050.03;;;7.01;73.52
78144;BME280;67394;52.522;13.622;2023-02-13T15:03:05;103050.44;;;6.92;74.47
78144;BME280;67394;52.522;13.622;2023-02-13T15:05:36;103048.44;;;6.87;74.21
78144;BME280;67394;52.522;13.622;2023-02-13T15:08:14;103050.13;;;6.86;74.49
78144;BME280;67394;52.522;13.622;2023-02-13T15:10:43;103038.72;;;6.96;74.63
78144;BME280;67394;52.522;13.622;2023-02-13T15:13:32;103024.16;;;6.93;74.26
78144;BME280;67394;52.522;13.622;2023-02-13T15:16:10;103030.53;;;6.85;74.37
78144;BME280;67394;52.522;13.622;2023-02-13T15:18:54;103028.94;;;6.87;73.39
78144;BME280;67394;52.522;13.622;2023-02-13T15:21:21;103031.72;;;6.92;73.58
78144;BME280;67394;52.522;13.622;2023-02-13T15:24:00;103031.31;;;6.84;73.55
78144;BME280;67394;52.522;13.622;2023-02-13T15:26:26;103024.38;;;6.82;74.26
78144;BME280;67394;52.522;13.622;2023-02-13T15:29:21;103022.53;;;6.79;74.36
78144;BME280;67394;52.522;13.622;2023-02-13T15:31:58;103017.13;;;6.89;74.58
78144;BME280;67394;52.522;13.622;2023-02-13T15:34:30;103009.06;;;6.82;74.41